sensor_id;sensor_type;location;lat;lon;timestamp;pressure;altitude;pressure_sealevel;temperature;humidity
22580;BME280;11456;47.030;15.396;2023-05-29T00:01:26;97526.75;;;17.43;70.90
22580;BME280;11456;47.030;15.396;2023-05-29T00:03:53;97521.84;;;17.32;71.73
22580;BME280;11456;47.030;15.396;2023-05-29T00:06:20;97524.44;;;17.40;72.01
22580;BME280;11456;47.030;15.396;2023-05-29T00:08:46;97529.88;;;17.40;72.12
22580;BME280;11456;47.030;15.396;2023-05-29T00:11:13;97515.06;;;17.49;71.44
22580;BME280;11456;47.030;15.396;2023-05-29T00:13:39;97517.91;;;17.62;70.29
22580;BME280;11456;47.030;15.396;2023-05-29T00:16:06;97517.09;;;17.69;71.17
22580;BME280;11456;47.030;15.396;2023-05-29T00:18:34;97509.53;;;17.64;70.51
22580;BME280;11456;47.030;15.396;2023-05-29T00:21:01;97509.97;;;17.68;70.26
22580;BME280;11456;47.030;15.396;2023-05-29T00:23:28;97517.91;;;17.41;72.08
22580;BME280;11456;47.030;15.396;2023-05-29T00:25:54;97510.41;;;17.43;72.14
22580;BME280;11456;47.030;15.396;2023-05-29T00:28:21;97512.25;;;17.36;72.56
22580;BME280;11456;47.030;15.396;2023-05-29T00:30:48;97516.00;;;17.35;72.57
22580;BME280;11456;47.030;15.396;2023-05-29T00:33:14;97506.47;;;17.46;72.00
22580;BME280;11456;47.030;15.396;2023-05-29T00:35:41;97506.00;;;17.42;73.42
22580;BME280;11456;47.030;15.396;2023-05-29T00:38:07;97504.63;;;17.25;73.49
22580;BME280;11456;47.030;15.396;2023-05-29T00:40:34;97511.75;;;17.26;74.51
22580;BME280;11456;47.030;15.396;2023-05-29T00:43:00;97517.31;;;17.39;73.93
22580;BME280;11456;47.030;15.396;2023-05-29T00:45:27;97515.25;;;17.48;73.24
22580;BME280;11456;47.030;15.396;2023-05-29T00:47:54;97509.38;;;17.44;73.32
22580;BME280;11456;47.030;15.396;2023-05-29T00:50:21;97511.91;;;17.46;73.37
22580;BME280;11456;47.030;15.396;2023-05-29T00:52:47;97509.38;;;17.44;73.10
22580;BME280;11456;47.030;15.396;2023-05-29T00:55:14;97512.34;;;17.49;72.65
22580;BME280;11456;47.030;15.396;2023-05-29T00:57:41;97510.72;;;17.27;74.84
22580;BME280;11456;47.030;15.396;2023-05-29T01:00:09;97500.22;;;17.52;73.44
22580;BME280;11456;47.030;15.396;2023-05-29T01:02:42;97507.31;;;17.46;72.28
22580;BME280;11456;47.030;15.396;2023-05-29T01:05:12;97505.41;;;17.47;72.43
22580;BME280;11456;47.030;15.396;2023-05-29T01:07:38;97506.75;;;17.57;71.91
22580;BME280;11456;47.030;15.396;2023-05-29T01:10:05;97498.84;;;17.62;72.07
22580;BME280;11456;47.030;15.396;2023-05-29T01:12:36;97504.84;;;17.58;73.37
22580;BME280;11456;47.030;15.396;2023-05-29T01:25:38;97508.00;;;17.27;75.20
22580;BME280;11456;47.030;15.396;2023-05-29T01:28:10;97501.94;;;17.04;76.22
22580;BME280;11456;47.030;15.396;2023-05-29T01:30:39;97499.81;;;16.99;77.26
22580;BME280;11456;47.030;15.396;2023-05-29T01:33:07;97509.97;;;17.12;76.04
22580;BME280;11456;47.030;15.396;2023-05-29T01:35:33;97501.19;;;17.16;75.64
22580;BME280;11456;47.030;15.396;2023-05-29T01:38:00;97508.22;;;17.04;77.48
22580;BME280;11456;47.030;15.396;2023-05-29T01:40:26;97503.13;;;16.95;77.08
22580;BME280;11456;47.030;15.396;2023-05-29T01:42:53;97494.72;;;16.90;77.47
22580;BME280;11456;47.030;15.396;2023-05-29T01:45:20;97484.50;;;16.70;78.01
22580;BME280;11456;47.030;15.396;2023-05-29T01:47:46;97485.78;;;16.74;77.68
22580;BME280;11456;47.030;15.396;2023-05-29T01:50:14;97485.13;;;16.51;79.53
22580;BME280;11456;47.030;15.396;2023-05-29T01:52:41;97479.28;;;16.54;79.08
22580;BME280;11456;47.030;15.396;2023-05-29T01:55:08;97491.00;;;16.55;78.74
22580;BME280;11456;47.030;15.396;2023-05-29T01:57:35;97491.38;;;16.52;78.83
22580;BME280;11456;47.030;15.396;2023-05-29T02:00:02;97485.50;;;16.48;78.40
22580;BME280;11456;47.030;15.396;2023-05-29T02:02:40;97487.03;;;16.36;78.93
22580;BME280;11456;47.030;15.396;2023-05-29T02:05:07;97483.50;;;16.21;80.09
22580;BME280;11456;47.030;15.396;2023-05-29T02:07:35;97479.09;;;16.20;79.99
22580;BME280;11456;47.030;15.396;2023-05-29T02:10:03;97479.94;;;15.99;81.13
22580;BME280;11456;47.030;15.396;2023-05-29T02:12:30;97479.00;;;16.07;80.38
22580;BME280;11456;47.030;15.396;2023-05-29T02:14:57;97476.31;;;16.13;80.52
22580;BME280;11456;47.030;15.396;2023-05-29T02:17:24;97480.38;;;16.02;80.83
22580;BME280;11456;47.030;15.396;2023-05-29T02:19:52;97475.19;;;15.86;81.37
22580;BME280;11456;47.030;15.396;2023-05-29T02:22:19;97471.72;;;15.78;82.30
22580;BME280;11456;47.030;15.396;2023-05-29T02:24:45;97476.88;;;15.73;83.70
22580;BME280;11456;47.030;15.396;2023-05-29T02:27:12;97475.78;;;15.67;84.06
22580;BME280;11456;47.030;15.396;2023-05-29T02:29:40;97472.41;;;15.65;83.64
22580;BME280;11456;47.030;15.396;2023-05-29T02:32:07;97472.31;;;15.58;83.53
22580;BME280;11456;47.030;15.396;2023-05-29T02:34:34;97472.47;;;15.57;82.52
22580;BME280;11456;47.030;15.396;2023-05-29T02:37:00;97479.31;;;15.53;82.71
22580;BME280;11456;47.030;15.396;2023-05-29T02:39:27;97475.69;;;15.60;82.40
22580;BME280;11456;47.030;15.396;2023-05-29T02:41:53;97476.94;;;15.50;83.62
22580;BME280;11456;47.030;15.396;2023-05-29T02:44:21;97471.47;;;15.58;82.92
22580;BME280;11456;47.030;15.396;2023-05-29T02:46:50;97478.00;;;15.49;83.53
22580;BME280;11456;47.030;15.396;2023-05-29T02:49:19;97471.34;;;15.51;83.31
22580;BME280;11456;47.030;15.396;2023-05-29T02:51:45;97480.00;;;15.17;84.06
22580;BME280;11456;47.030;15.396;2023-05-29T02:54:12;97478.84;;;15.35;83.68
22580;BME280;11456;47.030;15.396;2023-05-29T02:56:39;97486.31;;;15.33;83.00
22580;BME280;11456;47.030;15.396;2023-05-29T02:59:06;97486.22;;;15.41;82.78
22580;BME280;11456;47.030;15.396;2023-05-29T03:01:34;97485.94;;;15.36;83.08
22580;BME280;11456;47.030;15.396;2023-05-29T03:04:01;97490.78;;;15.25;83.25
22580;BME280;11456;47.030;15.396;2023-05-29T03:06:29;97485.63;;;15.01;84.78
22580;BME280;11456;47.030;15.396;2023-05-29T03:08:56;97493.78;;;15.16;84.14
22580;BME280;11456;47.030;15.396;2023-05-29T03:11:22;97496.06;;;15.04;84.43
22580;BME280;11456;47.030;15.396;2023-05-29T03:13:51;97493.09;;;14.99;85.35
22580;BME280;11456;47.030;15.396;2023-05-29T03:16:18;97491.25;;;15.14;85.07
22580;BME280;11456;47.030;15.396;2023-05-29T03:18:45;97485.16;;;14.98;85.73
22580;BME280;11456;47.030;15.396;2023-05-29T03:21:13;97488.72;;;15.13;85.73
22580;BME280;11456;47.030;15.396;2023-05-29T03:23:40;97487.19;;;14.96;86.94
22580;BME280;11456;47.030;15.396;2023-05-29T03:26:06;97493.09;;;14.99;87.46
22580;BME280;11456;47.030;15.396;2023-05-29T03:28:34;97497.03;;;15.11;86.61
22580;BME280;11456;47.030;15.396;2023-05-29T03:31:03;97491.06;;;15.16;86.38
22580;BME280;11456;47.030;15.396;2023-05-29T03:33:30;97493.84;;;15.08;85.98
22580;BME280;11456;47.030;15.396;2023-05-29T03:36:04;97492.72;;;15.02;86.76
22580;BME280;11456;47.030;15.396;2023-05-29T03:38:31;97492.06;;;15.00;87.49
22580;BME280;11456;47.030;15.396;2023-05-29T03:40:59;97501.03;;;15.01;88.31
22580;BME280;11456;47.030;15.396;2023-05-29T03:43:26;97491.59;;;15.11;87.41
22580;BME280;11456;47.030;15.396;2023-05-29T03:45:53;97495.72;;;15.07;87.39
22580;BME280;11456;47.030;15.396;2023-05-29T03:48:19;97498.38;;;15.15;87.51
22580;BME280;11456;47.030;15.396;2023-05-29T03:50:47;97504.16;;;15.12;88.35
22580;BME280;11456;47.030;15.396;2023-05-29T03:53:18;97498.38;;;15.15;87.99
22580;BME280;11456;47.030;15.396;2023-05-29T03:55:45;97495.06;;;15.05;89.17
22580;BME280;11456;47.030;15.396;2023-05-29T03:58:12;97496.59;;;15.22;87.93
22580;BME280;11456;47.030;15.396;2023-05-29T04:00:39;97501.47;;;15.27;87.52
22580;BME280;11456;47.030;15.396;2023-05-29T04:03:07;97496.50;;;15.31;87.82
22580;BME280;11456;47.030;15.396;2023-05-29T04:05:34;97497.81;;;15.35;87.58
22580;BME280;11456;47.030;15.396;2023-05-29T04:08:01;97498.38;;;15.45;87.37
22580;BME280;11456;47.030;15.396;2023-05-29T04:10:41;97512.22;;;15.50;86.64
22580;BME280;11456;47.030;15.396;2023-05-29T04:13:08;97503.66;;;15.61;85.99
22580;BME280;11456;47.030;15.396;2023-05-29T04:15:34;97500.56;;;15.79;85.97
22580;BME280;11456;47.030;15.396;2023-05-29T04:18:02;97502.16;;;15.73;87.15
22580;BME280;11456;47.030;15.396;2023-05-29T04:20:29;97500.84;;;15.69;87.34
22580;BME280;11456;47.030;15.396;2023-05-29T04:22:56;97507.19;;;15.76;87.09
22580;BME280;11456;47.030;15.396;2023-05-29T04:25:23;97500.09;;;15.75;87.23
22580;BME280;11456;47.030;15.396;2023-05-29T04:27:49;97503.09;;;15.80;86.91
22580;BME280;11456;47.030;15.396;2023-05-29T04:30:18;97514.59;;;15.97;86.27
22580;BME280;11456;47.030;15.396;2023-05-29T04:32:47;97510.16;;;16.11;85.70
22580;BME280;11456;47.030;15.396;2023-05-29T04:35:13;97510.31;;;16.24;84.85
22580;BME280;11456;47.030;15.396;2023-05-29T04:37:49;97518.44;;;16.38;83.95
22580;BME280;11456;47.030;15.396;2023-05-29T04:40:16;97522.78;;;16.54;83.48
22580;BME280;11456;47.030;15.396;2023-05-29T04:42:44;97535.66;;;16.81;82.77
22580;BME280;11456;47.030;15.396;2023-05-29T04:45:12;97528.78;;;16.86;82.11
22580;BME280;11456;47.030;15.396;2023-05-29T04:47:39;97536.03;;;16.78;81.54
22580;BME280;11456;47.030;15.396;2023-05-29T04:50:16;97538.13;;;16.76;81.42
22580;BME280;11456;47.030;15.396;2023-05-29T04:52:43;97542.50;;;16.99;81.48
22580;BME280;11456;47.030;15.396;2023-05-29T04:55:10;97536.50;;;17.31;80.29
22580;BME280;11456;47.030;15.396;2023-05-29T04:57:37;97536.97;;;17.41;79.30
22580;BME280;11456;47.030;15.396;2023-05-29T05:00:07;97538.69;;;17.70;78.00
22580;BME280;11456;47.030;15.396;2023-05-29T05:02:42;97539.91;;;17.68;79.04
22580;BME280;11456;47.030;15.396;2023-05-29T05:05:13;97546.31;;;17.53;79.96
22580;BME280;11456;47.030;15.396;2023-05-29T05:07:39;97539.00;;;17.88;79.39
22580;BME280;11456;47.030;15.396;2023-05-29T05:10:06;97554.34;;;17.61;79.53
22580;BME280;11456;47.030;15.396;2023-05-29T05:12:34;97547.06;;;17.69;79.50
22580;BME280;11456;47.030;15.396;2023-05-29T05:15:01;97549.94;;;17.95;78.89
22580;BME280;11456;47.030;15.396;2023-05-29T05:17:29;97541.22;;;18.13;79.29
22580;BME280;11456;47.030;15.396;2023-05-29T05:19:56;97546.75;;;18.32;77.54
22580;BME280;11456;47.030;15.396;2023-05-29T05:22:22;97548.50;;;18.47;77.79
22580;BME280;11456;47.030;15.396;2023-05-29T05:24:50;97548.09;;;18.50;77.21
22580;BME280;11456;47.030;15.396;2023-05-29T05:27:18;97552.41;;;18.78;75.36
22580;BME280;11456;47.030;15.396;2023-05-29T05:29:45;97545.66;;;18.68;75.30
22580;BME280;11456;47.030;15.396;2023-05-29T05:32:11;97549.13;;;18.49;76.24
22580;BME280;11456;47.030;15.396;2023-05-29T05:34:38;97549.88;;;18.90;75.16
22580;BME280;11456;47.030;15.396;2023-05-29T05:37:06;97545.72;;;19.20;74.18
22580;BME280;11456;47.030;15.396;2023-05-29T05:39:33;97541.56;;;19.64;71.47
22580;BME280;11456;47.030;15.396;2023-05-29T05:42:00;97554.53;;;19.88;69.16
22580;BME280;11456;47.030;15.396;2023-05-29T05:44:46;97544.91;;;19.53;69.31
22580;BME280;11456;47.030;15.396;2023-05-29T05:47:13;97549.31;;;19.67;68.17
22580;BME280;11456;47.030;15.396;2023-05-29T05:49:40;97540.72;;;19.50;68.58
22580;BME280;11456;47.030;15.396;2023-05-29T05:52:07;97548.19;;;20.08;68.61
22580;BME280;11456;47.030;15.396;2023-05-29T05:54:34;97547.19;;;20.53;66.28
22580;BME280;11456;47.030;15.396;2023-05-29T05:57:00;97552.31;;;20.23;66.15
22580;BME280;11456;47.030;15.396;2023-05-29T05:59:28;97555.13;;;20.61;66.01
22580;BME280;11456;47.030;15.396;2023-05-29T06:01:55;97555.34;;;20.66;65.42
22580;BME280;11456;47.030;15.396;2023-05-29T06:04:22;97555.84;;;20.44;63.86
22580;BME280;11456;47.030;15.396;2023-05-29T06:06:49;97557.75;;;20.30;66.50
22580;BME280;11456;47.030;15.396;2023-05-29T06:09:15;97560.25;;;20.51;65.29
22580;BME280;11456;47.030;15.396;2023-05-29T06:11:43;97562.81;;;20.46;66.09
22580;BME280;11456;47.030;15.396;2023-05-29T06:14:10;97567.38;;;20.59;66.36
22580;BME280;11456;47.030;15.396;2023-05-29T06:16:36;97563.03;;;20.83;65.44
22580;BME280;11456;47.030;15.396;2023-05-29T06:19:03;97568.44;;;20.96;66.60
22580;BME280;11456;47.030;15.396;2023-05-29T06:21:37;97562.81;;;21.22;64.56
22580;BME280;11456;47.030;15.396;2023-05-29T06:24:05;97561.97;;;21.46;61.40
22580;BME280;11456;47.030;15.396;2023-05-29T06:26:31;97574.94;;;21.33;62.62
22580;BME280;11456;47.030;15.396;2023-05-29T06:28:58;97571.97;;;21.34;61.89
22580;BME280;11456;47.030;15.396;2023-05-29T06:31:25;97569.81;;;21.68;60.81
22580;BME280;11456;47.030;15.396;2023-05-29T06:33:52;97562.91;;;22.08;56.76
22580;BME280;11456;47.030;15.396;2023-05-29T06:36:18;97564.06;;;21.76;59.21
22580;BME280;11456;47.030;15.396;2023-05-29T06:38:49;97573.59;;;22.53;57.85
22580;BME280;11456;47.030;15.396;2023-05-29T06:41:15;97567.34;;;22.27;57.19
22580;BME280;11456;47.030;15.396;2023-05-29T06:43:42;97565.84;;;21.01;60.29
22580;BME280;11456;47.030;15.396;2023-05-29T06:46:10;97576.19;;;21.62;60.22
22580;BME280;11456;47.030;15.396;2023-05-29T06:48:36;97569.00;;;22.65;55.99
22580;BME280;11456;47.030;15.396;2023-05-29T06:51:03;97574.44;;;23.01;54.50
22580;BME280;11456;47.030;15.396;2023-05-29T06:53:54;97563.84;;;23.58;53.32
22580;BME280;11456;47.030;15.396;2023-05-29T06:56:22;97568.22;;;23.36;56.31
22580;BME280;11456;47.030;15.396;2023-05-29T06:58:48;97569.00;;;23.66;53.16
22580;BME280;11456;47.030;15.396;2023-05-29T07:01:15;97574.78;;;22.75;55.49
22580;BME280;11456;47.030;15.396;2023-05-29T07:03:52;97572.13;;;22.98;55.18
22580;BME280;11456;47.030;15.396;2023-05-29T07:06:18;97564.22;;;24.43;50.85
22580;BME280;11456;47.030;15.396;2023-05-29T07:08:45;97568.88;;;24.08;49.71
22580;BME280;11456;47.030;15.396;2023-05-29T07:11:12;97570.19;;;24.92;48.26
22580;BME280;11456;47.030;15.396;2023-05-29T07:13:38;97561.19;;;24.56;48.74
22580;BME280;11456;47.030;15.396;2023-05-29T07:16:05;97565.59;;;24.69;48.74
22580;BME280;11456;47.030;15.396;2023-05-29T07:18:52;97570.56;;;24.44;48.02
22580;BME280;11456;47.030;15.396;2023-05-29T07:21:19;97574.75;;;24.86;49.78
22580;BME280;11456;47.030;15.396;2023-05-29T07:23:47;97573.59;;;24.70;46.70
22580;BME280;11456;47.030;15.396;2023-05-29T07:26:14;97567.94;;;24.37;46.56
22580;BME280;11456;47.030;15.396;2023-05-29T07:28:40;97572.47;;;23.73;51.49
22580;BME280;11456;47.030;15.396;2023-05-29T07:31:07;97582.94;;;25.09;45.44
22580;BME280;11456;47.030;15.396;2023-05-29T07:33:34;97577.94;;;25.51;43.31
22580;BME280;11456;47.030;15.396;2023-05-29T07:36:01;97579.31;;;25.37;40.87
22580;BME280;11456;47.030;15.396;2023-05-29T07:38:28;97578.75;;;25.07;41.60
22580;BME280;11456;47.030;15.396;2023-05-29T07:40:55;97584.97;;;26.09;41.08
22580;BME280;11456;47.030;15.396;2023-05-29T07:43:37;97577.34;;;26.16;38.07
22580;BME280;11456;47.030;15.396;2023-05-29T07:46:06;97569.34;;;24.16;40.61
22580;BME280;11456;47.030;15.396;2023-05-29T07:48:36;97576.13;;;24.60;40.54
22580;BME280;11456;47.030;15.396;2023-05-29T07:51:03;97556.81;;;26.89;39.61
22580;BME280;11456;47.030;15.396;2023-05-29T07:53:34;97574.47;;;26.45;37.02
22580;BME280;11456;47.030;15.396;2023-05-29T07:56:02;97564.13;;;26.79;35.70
22580;BME280;11456;47.030;15.396;2023-05-29T07:58:29;97565.09;;;26.89;35.53
22580;BME280;11456;47.030;15.396;2023-05-29T08:00:58;97572.50;;;26.23;37.06
22580;BME280;11456;47.030;15.396;2023-05-29T08:03:25;97563.78;;;26.31;36.43
22580;BME280;11456;47.030;15.396;2023-05-29T08:06:15;97575.63;;;26.49;36.25
22580;BME280;11456;47.030;15.396;2023-05-29T08:08:44;97566.38;;;27.03;35.38
22580;BME280;11456;47.030;15.396;2023-05-29T08:11:11;97564.09;;;26.18;36.49
22580;BME280;11456;47.030;15.396;2023-05-29T08:13:38;97567.63;;;26.69;36.93
22580;BME280;11456;47.030;15.396;2023-05-29T08:16:05;97559.44;;;26.79;36.43
22580;BME280;11456;47.030;15.396;2023-05-29T08:18:32;97569.81;;;26.28;35.88
22580;BME280;11456;47.030;15.396;2023-05-29T08:20:59;97567.13;;;26.33;36.37
22580;BME280;11456;47.030;15.396;2023-05-29T08:23:26;97566.75;;;26.47;36.77
22580;BME280;11456;47.030;15.396;2023-05-29T08:25:53;97566.28;;;25.78;37.16
22580;BME280;11456;47.030;15.396;2023-05-29T08:28:20;97569.91;;;26.00;35.85
22580;BME280;11456;47.030;15.396;2023-05-29T08:30:47;97570.66;;;25.45;37.75
22580;BME280;11456;47.030;15.396;2023-05-29T08:33:14;97563.03;;;26.19;36.44
22580;BME280;11456;47.030;15.396;2023-05-29T08:35:41;97557.38;;;26.48;36.03
22580;BME280;11456;47.030;15.396;2023-05-29T08:38:07;97565.63;;;26.43;36.79
22580;BME280;11456;47.030;15.396;2023-05-29T08:40:34;97551.06;;;27.18;36.19
22580;BME280;11456;47.030;15.396;2023-05-29T08:43:15;97557.78;;;26.56;35.32
22580;BME280;11456;47.030;15.396;2023-05-29T08:45:43;97562.88;;;26.26;35.70
22580;BME280;11456;47.030;15.396;2023-05-29T08:48:10;97552.97;;;26.68;35.48
22580;BME280;11456;47.030;15.396;2023-05-29T08:50:43;97544.53;;;27.29;35.72
22580;BME280;11456;47.030;15.396;2023-05-29T08:53:14;97550.31;;;26.18;35.83
22580;BME280;11456;47.030;15.396;2023-05-29T08:55:41;97555.63;;;27.34;34.75
22580;BME280;11456;47.030;15.396;2023-05-29T08:58:08;97548.91;;;27.25;35.59
22580;BME280;11456;47.030;15.396;2023-05-29T09:00:36;97553.00;;;28.13;36.03
22580;BME280;11456;47.030;15.396;2023-05-29T09:03:02;97545.06;;;27.26;36.48
22580;BME280;11456;47.030;15.396;2023-05-29T09:05:29;97550.75;;;28.47;33.94
22580;BME280;11456;47.030;15.396;2023-05-29T09:07:56;97544.47;;;28.14;34.71
22580;BME280;11456;47.030;15.396;2023-05-29T09:10:23;97545.09;;;28.79;32.67
22580;BME280;11456;47.030;15.396;2023-05-29T09:12:51;97533.00;;;28.01;33.57
22580;BME280;11456;47.030;15.396;2023-05-29T09:15:19;97546.25;;;27.62;32.93
22580;BME280;11456;47.030;15.396;2023-05-29T09:17:49;97538.94;;;27.82;33.47
22580;BME280;11456;47.030;15.396;2023-05-29T09:20:16;97546.94;;;28.63;33.17
22580;BME280;11456;47.030;15.396;2023-05-29T09:22:57;97545.50;;;29.23;31.94
22580;BME280;11456;47.030;15.396;2023-05-29T09:25:25;97545.84;;;29.46;32.11
22580;BME280;11456;47.030;15.396;2023-05-29T09:27:54;97556.41;;;29.60;31.89
22580;BME280;11456;47.030;15.396;2023-05-29T09:33:00;97551.13;;;29.83;31.21
22580;BME280;11456;47.030;15.396;2023-05-29T09:38:00;97550.63;;;28.79;31.52
22580;BME280;11456;47.030;15.396;2023-05-29T09:40:31;97542.91;;;28.86;32.25
22580;BME280;11456;47.030;15.396;2023-05-29T09:43:01;97543.00;;;27.43;34.33
22580;BME280;11456;47.030;15.396;2023-05-29T09:45:29;97544.16;;;26.50;35.45
22580;BME280;11456;47.030;15.396;2023-05-29T09:47:57;97541.56;;;27.08;36.11
22580;BME280;11456;47.030;15.396;2023-05-29T09:50:27;97538.94;;;28.71;32.73
22580;BME280;11456;47.030;15.396;2023-05-29T09:52:56;97544.28;;;26.82;34.87
22580;BME280;11456;47.030;15.396;2023-05-29T09:55:23;97545.94;;;25.67;36.90
22580;BME280;11456;47.030;15.396;2023-05-29T09:57:53;97553.31;;;26.33;36.02
22580;BME280;11456;47.030;15.396;2023-05-29T10:00:19;97545.00;;;27.21;35.19
22580;BME280;11456;47.030;15.396;2023-05-29T10:02:47;97536.28;;;27.98;35.55
22580;BME280;11456;47.030;15.396;2023-05-29T10:05:14;97536.31;;;27.66;33.78
22580;BME280;11456;47.030;15.396;2023-05-29T10:07:49;97534.00;;;28.21;35.13
22580;BME280;11456;47.030;15.396;2023-05-29T10:10:18;97540.16;;;28.96;31.57
22580;BME280;11456;47.030;15.396;2023-05-29T10:12:48;97527.63;;;28.21;33.93
22580;BME280;11456;47.030;15.396;2023-05-29T10:15:15;97534.22;;;27.78;34.17
22580;BME280;11456;47.030;15.396;2023-05-29T10:18:05;97527.13;;;27.60;32.90
22580;BME280;11456;47.030;15.396;2023-05-29T10:20:31;97531.94;;;27.43;35.51
22580;BME280;11456;47.030;15.396;2023-05-29T10:23:00;97527.03;;;27.50;33.93
22580;BME280;11456;47.030;15.396;2023-05-29T10:25:27;97521.78;;;27.22;34.33
22580;BME280;11456;47.030;15.396;2023-05-29T10:27:56;97529.88;;;27.55;33.43
22580;BME280;11456;47.030;15.396;2023-05-29T10:30:33;97522.13;;;26.55;35.28
22580;BME280;11456;47.030;15.396;2023-05-29T10:36:15;97519.22;;;27.15;34.23
22580;BME280;11456;47.030;15.396;2023-05-29T10:38:15;97519.09;;;26.34;34.88
22580;BME280;11456;47.030;15.396;2023-05-29T10:40:45;97520.75;;;26.57;35.47
22580;BME280;11456;47.030;15.396;2023-05-29T10:43:33;97511.09;;;27.30;34.31
22580;BME280;11456;47.030;15.396;2023-05-29T10:46:01;97530.75;;;25.65;35.76
22580;BME280;11456;47.030;15.396;2023-05-29T10:48:40;97516.66;;;26.38;34.98
22580;BME280;11456;47.030;15.396;2023-05-29T10:51:07;97527.97;;;26.80;34.62
22580;BME280;11456;47.030;15.396;2023-05-29T10:53:34;97513.69;;;26.88;33.96
22580;BME280;11456;47.030;15.396;2023-05-29T10:56:14;97516.78;;;26.70;34.46
22580;BME280;11456;47.030;15.396;2023-05-29T10:58:42;97512.34;;;26.25;35.00
22580;BME280;11456;47.030;15.396;2023-05-29T11:01:08;97509.59;;;27.18;33.49
22580;BME280;11456;47.030;15.396;2023-05-29T11:03:35;97508.06;;;29.30;33.23
22580;BME280;11456;47.030;15.396;2023-05-29T11:06:02;97500.84;;;28.42;30.83
22580;BME280;11456;47.030;15.396;2023-05-29T11:13:55;97506.78;;;28.65;32.11
22580;BME280;11456;47.030;15.396;2023-05-29T11:18:48;97503.81;;;27.19;32.31
22580;BME280;11456;47.030;15.396;2023-05-29T11:21:30;97500.56;;;26.13;33.71
22580;BME280;11456;47.030;15.396;2023-05-29T11:23:59;97503.97;;;25.82;35.26
22580;BME280;11456;47.030;15.396;2023-05-29T11:26:26;97490.50;;;27.48;32.14
22580;BME280;11456;47.030;15.396;2023-05-29T11:28:56;97500.53;;;27.27;32.04
22580;BME280;11456;47.030;15.396;2023-05-29T11:31:23;97499.72;;;29.10;29.62
22580;BME280;11456;47.030;15.396;2023-05-29T11:33:51;97490.91;;;29.43;29.48
22580;BME280;11456;47.030;15.396;2023-05-29T11:36:21;97490.41;;;28.12;30.60
22580;BME280;11456;47.030;15.396;2023-05-29T11:38:48;97485.41;;;28.09;29.64
22580;BME280;11456;47.030;15.396;2023-05-29T11:41:16;97480.81;;;27.45;31.39
22580;BME280;11456;47.030;15.396;2023-05-29T11:43:43;97478.06;;;29.02;30.25
22580;BME280;11456;47.030;15.396;2023-05-29T11:46:19;97479.19;;;29.16;28.83
22580;BME280;11456;47.030;15.396;2023-05-29T11:48:46;97475.47;;;30.42;27.80
22580;BME280;11456;47.030;15.396;2023-05-29T11:51:13;97480.81;;;28.87;28.15
22580;BME280;11456;47.030;15.396;2023-05-29T11:53:40;97478.66;;;30.00;28.02
22580;BME280;11456;47.030;15.396;2023-05-29T11:56:11;97472.94;;;30.56;28.13
22580;BME280;11456;47.030;15.396;2023-05-29T11:58:38;97480.59;;;30.79;25.92
22580;BME280;11456;47.030;15.396;2023-05-29T12:01:05;97487.16;;;28.77;28.09
22580;BME280;11456;47.030;15.396;2023-05-29T12:03:42;97470.47;;;28.10;29.75
22580;BME280;11456;47.030;15.396;2023-05-29T12:06:09;97468.97;;;28.39;30.52
22580;BME280;11456;47.030;15.396;2023-05-29T12:08:37;97472.50;;;27.77;29.10
22580;BME280;11456;47.030;15.396;2023-05-29T12:11:04;97459.00;;;27.91;30.79
22580;BME280;11456;47.030;15.396;2023-05-29T12:13:30;97466.78;;;28.41;30.14
22580;BME280;11456;47.030;15.396;2023-05-29T12:15:58;97466.72;;;28.31;29.67
22580;BME280;11456;47.030;15.396;2023-05-29T12:18:26;97468.13;;;28.34;30.04
22580;BME280;11456;47.030;15.396;2023-05-29T12:21:02;97470.03;;;28.23;30.04
22580;BME280;11456;47.030;15.396;2023-05-29T12:23:30;97467.72;;;27.68;29.61
22580;BME280;11456;47.030;15.396;2023-05-29T12:25:58;97464.16;;;27.08;29.52
22580;BME280;11456;47.030;15.396;2023-05-29T12:28:25;97457.00;;;28.23;28.00
22580;BME280;11456;47.030;15.396;2023-05-29T12:30:57;97458.72;;;28.35;27.22
22580;BME280;11456;47.030;15.396;2023-05-29T12:33:33;97454.47;;;28.17;28.63
22580;BME280;11456;47.030;15.396;2023-05-29T12:36:06;97463.13;;;29.23;27.15
22580;BME280;11456;47.030;15.396;2023-05-29T12:38:41;97459.25;;;29.95;25.47
22580;BME280;11456;47.030;15.396;2023-05-29T12:41:24;97464.25;;;29.58;25.27
22580;BME280;11456;47.030;15.396;2023-05-29T12:43:53;97463.66;;;28.22;26.37
22580;BME280;11456;47.030;15.396;2023-05-29T12:46:21;97454.47;;;28.94;26.52
22580;BME280;11456;47.030;15.396;2023-05-29T12:48:48;97454.78;;;29.28;25.65
22580;BME280;11456;47.030;15.396;2023-05-29T12:51:17;97454.16;;;28.81;25.50
22580;BME280;11456;47.030;15.396;2023-05-29T12:53:44;97445.38;;;29.39;26.01
22580;BME280;11456;47.030;15.396;2023-05-29T12:56:11;97454.06;;;30.43;24.59
22580;BME280;11456;47.030;15.396;2023-05-29T12:58:37;97444.63;;;30.44;26.07
22580;BME280;11456;47.030;15.396;2023-05-29T13:01:04;97437.84;;;30.70;24.27
22580;BME280;11456;47.030;15.396;2023-05-29T13:03:30;97430.91;;;29.98;24.77
22580;BME280;11456;47.030;15.396;2023-05-29T13:05:57;97442.50;;;30.20;24.80
22580;BME280;11456;47.030;15.396;2023-05-29T13:08:25;97433.09;;;29.91;25.84
22580;BME280;11456;47.030;15.396;2023-05-29T13:10:51;97438.66;;;29.96;25.42
22580;BME280;11456;47.030;15.396;2023-05-29T13:13:18;97440.94;;;31.13;24.45
22580;BME280;11456;47.030;15.396;2023-05-29T13:15:45;97441.19;;;31.16;22.37
22580;BME280;11456;47.030;15.396;2023-05-29T13:18:11;97426.38;;;30.82;23.64
22580;BME280;11456;47.030;15.396;2023-05-29T13:20:38;97438.19;;;31.08;25.18
22580;BME280;11456;47.030;15.396;2023-05-29T13:23:04;97422.72;;;30.86;22.44